Time;durP1;ratioP1;P1;durP2;ratioP2;P2;SDS_P1;SDS_P2;PMS_P1;PMS_P2;Temp;Humidity;BMP_temperature;BMP_pressure;BME280_temperature;BME280_humidity;BME280_pressure;Samples;Min_cycle;Max_cycle;Signal;HPM_P1;HPM_P2
2021/08/10 00:01:50;;;;;;;9.67;6.00;;;15.00;99.90;;;;;;5026461;28;20693;-61
2021/08/10 00:04:20;;;;;;;7.97;6.10;;;15.00;99.90;;;;;;5025622;28;20241;-61
2021/08/10 00:06:50;;;;;;;7.93;6.40;;;15.00;99.90;;;;;;5025358;28;20405;-62
2021/08/10 00:09:19;;;;;;;9.97;6.57;;;14.90;99.90;;;;;;5029015;28;20236;-62
2021/08/10 00:11:47;;;;;;;8.57;6.17;;;14.90;99.90;;;;;;5029904;28;20743;-62
2021/08/10 00:14:15;;;;;;;8.10;6.30;;;14.90;99.90;;;;;;5030079;28;20647;-62
2021/08/10 00:16:43;;;;;;;8.10;5.70;;;14.90;99.90;;;;;;5029561;28;20589;-61
2021/08/10 00:19:11;;;;;;;7.50;6.07;;;14.90;99.90;;;;;;5030572;28;20240;-63
2021/08/10 00:21:41;;;;;;;9.23;6.30;;;14.90;99.90;;;;;;5029355;28;20242;-61
2021/08/10 00:24:09;;;;;;;8.03;5.93;;;14.90;99.90;;;;;;5044057;28;20302;-62
2021/08/10 00:26:37;;;;;;;9.53;6.30;;;14.90;99.90;;;;;;5029837;28;20228;-61
2021/08/10 00:29:05;;;;;;;9.43;6.13;;;14.80;99.90;;;;;;5036030;28;20586;-61
2021/08/10 00:31:33;;;;;;;7.97;5.87;;;14.80;99.90;;;;;;5032752;28;20239;-61
2021/08/10 00:34:02;;;;;;;9.20;6.43;;;14.90;99.90;;;;;;5036283;28;20236;-61
2021/08/10 00:36:30;;;;;;;10.30;5.70;;;14.80;99.90;;;;;;5029135;28;20295;-62
2021/08/10 00:38:59;;;;;;;8.27;5.90;;;14.80;99.90;;;;;;5028352;28;20267;-61
2021/08/10 00:41:27;;;;;;;6.63;5.30;;;14.70;99.90;;;;;;5018803;28;20248;-61
2021/08/10 00:43:58;;;;;;;8.27;5.73;;;14.80;99.90;;;;;;5039647;28;20643;-61
2021/08/10 00:46:29;;;;;;;8.07;6.23;;;14.70;99.90;;;;;;5029107;28;20242;-62
2021/08/10 00:48:58;;;;;;;8.83;5.43;;;14.70;99.90;;;;;;5028058;28;20291;-61
2021/08/10 00:51:32;;;;;;;8.10;5.57;;;14.70;99.90;;;;;;5027383;28;20244;-62
2021/08/10 00:54:06;;;;;;;8.40;5.30;;;14.70;99.90;;;;;;5037260;28;20236;-61
2021/08/10 00:56:36;;;;;;;6.53;5.70;;;14.70;99.90;;;;;;5027986;28;20240;-61
2021/08/10 00:59:05;;;;;;;7.97;4.90;;;14.60;99.90;;;;;;5027825;28;20693;-62
2021/08/10 01:01:40;;;;;;;8.93;5.80;;;14.60;99.90;;;;;;5027074;28;20236;-62
2021/08/10 01:04:09;;;;;;;7.57;5.00;;;14.60;99.90;;;;;;5037316;28;20247;-62
2021/08/10 01:06:49;;;;;;;8.17;5.80;;;14.60;99.90;;;;;;5027079;28;20294;-62
2021/08/10 01:09:26;;;;;;;8.37;5.30;;;14.60;99.90;;;;;;5033093;28;20228;-61
2021/08/10 01:12:02;;;;;;;6.03;5.43;;;14.60;99.90;;;;;;5014258;28;20239;-61
2021/08/10 01:14:39;;;;;;;7.77;5.40;;;14.50;99.90;;;;;;5032568;28;20231;-62
2021/08/10 01:17:14;;;;;;;9.00;5.20;;;14.50;99.90;;;;;;5031264;28;20640;-61
2021/08/10 01:20:05;;;;;;;7.50;5.33;;;14.50;99.90;;;;;;5032919;28;20264;-61
2021/08/10 01:22:39;;;;;;;8.03;5.53;;;14.50;99.90;;;;;;5021795;28;20228;-62
2021/08/10 01:25:19;;;;;;;7.47;5.27;;;14.50;99.90;;;;;;5039070;28;20289;-62
2021/08/10 01:28:04;;;;;;;6.67;5.20;;;14.50;99.90;;;;;;5006749;28;20701;-62
2021/08/10 01:30:39;;;;;;;8.13;5.20;;;14.50;99.90;;;;;;5005488;28;20640;-61
2021/08/10 01:33:09;;;;;;;7.77;4.83;;;14.40;99.90;;;;;;5012073;28;20240;-61
2021/08/10 01:35:40;;;;;;;10.10;5.70;;;14.40;99.90;;;;;;5006999;28;20287;-62
2021/08/10 01:38:09;;;;;;;6.73;5.20;;;14.40;99.90;;;;;;5023570;28;20236;-62
2021/08/10 01:40:37;;;;;;;7.43;4.80;;;14.40;99.90;;;;;;5027412;28;20635;-62
2021/08/10 01:43:07;;;;;;;7.13;4.73;;;14.40;99.90;;;;;;5027890;28;20726;-61
2021/08/10 01:45:38;;;;;;;6.37;4.93;;;14.40;99.90;;;;;;5027434;28;20233;-62
2021/08/10 01:48:14;;;;;;;7.07;5.33;;;14.40;99.90;;;;;;5026439;28;20581;-62
2021/08/10 01:50:45;;;;;;;8.57;5.33;;;14.40;99.90;;;;;;5022388;28;20247;-61
2021/08/10 01:53:19;;;;;;;6.60;5.40;;;14.40;99.90;;;;;;5026756;28;20232;-62
2021/08/10 01:55:50;;;;;;;7.13;5.50;;;14.30;99.90;;;;;;5027153;28;20298;-61
2021/08/10 01:58:23;;;;;;;6.60;5.70;;;14.30;99.90;;;;;;5026836;28;20277;-62
2021/08/10 02:00:55;;;;;;;7.80;5.37;;;14.30;99.90;;;;;;5023472;28;20242;-61
2021/08/10 02:03:28;;;;;;;8.27;5.17;;;14.30;99.90;;;;;;5026482;28;20506;-62
2021/08/10 02:06:07;;;;;;;5.90;4.83;;;14.30;99.90;;;;;;5026993;28;20320;-61
2021/08/10 02:08:38;;;;;;;7.17;5.00;;;14.30;99.90;;;;;;5026805;28;20229;-61
2021/08/10 02:11:08;;;;;;;6.30;5.07;;;14.30;99.90;;;;;;5027471;28;20631;-61
2021/08/10 02:13:37;;;;;;;6.93;4.97;;;14.20;99.90;;;;;;5025947;28;20236;-61
2021/08/10 02:16:08;;;;;;;7.60;5.17;;;14.20;99.90;;;;;;5026535;28;20236;-61
2021/08/10 02:18:41;;;;;;;7.67;5.40;;;14.30;99.90;;;;;;5021144;28;20244;-62
2021/08/10 02:21:22;;;;;;;5.90;5.00;;;14.30;99.90;;;;;;5026109;28;20741;-62
2021/08/10 02:23:53;;;;;;;7.30;5.00;;;14.30;99.90;;;;;;5025676;28;20239;-62
2021/08/10 02:26:22;;;;;;;7.77;5.40;;;14.30;99.90;;;;;;5026006;28;20240;-62
2021/08/10 02:28:53;;;;;;;9.10;5.93;;;14.30;99.90;;;;;;5025983;28;20242;-61
2021/08/10 02:31:27;;;;;;;8.33;5.57;;;14.30;99.90;;;;;;5026045;28;20730;-61
2021/08/10 02:33:59;;;;;;;6.23;5.63;;;14.30;99.90;;;;;;5025764;28;20236;-61
2021/08/10 02:36:32;;;;;;;6.67;5.20;;;14.30;99.90;;;;;;5020010;28;20252;-61
2021/08/10 02:39:06;;;;;;;7.17;5.07;;;14.20;99.90;;;;;;5025887;28;20600;-61
2021/08/10 02:41:38;;;;;;;8.97;5.90;;;14.40;99.90;;;;;;5024756;28;20240;-62
2021/08/10 02:44:10;;;;;;;7.70;5.20;;;14.40;99.90;;;;;;5025797;28;20595;-61
2021/08/10 02:46:39;;;;;;;6.23;5.03;;;14.30;99.90;;;;;;5026130;28;20593;-61
2021/08/10 02:49:11;;;;;;;6.67;5.20;;;14.30;99.90;;;;;;5033598;28;20243;-62
2021/08/10 02:51:40;;;;;;;10.50;5.40;;;14.20;99.90;;;;;;5031243;28;20232;-61
2021/08/10 02:54:09;;;;;;;7.17;5.47;;;14.30;99.90;;;;;;5026139;28;20265;-62
2021/08/10 02:56:45;;;;;;;10.30;5.63;;;14.20;99.90;;;;;;5026304;28;20243;-61
2021/08/10 02:59:18;;;;;;;9.10;5.13;;;14.20;99.90;;;;;;5032127;28;20238;-61
2021/08/10 03:01:50;;;;;;;6.00;5.40;;;14.20;99.90;;;;;;5021583;28;20703;-61
2021/08/10 03:04:23;;;;;;;7.83;5.57;;;14.30;99.90;;;;;;5018089;28;20326;-62
2021/08/10 03:06:54;;;;;;;8.53;5.77;;;14.20;99.90;;;;;;5025695;28;20347;-62
2021/08/10 03:09:23;;;;;;;8.90;5.23;;;14.20;99.90;;;;;;5027089;28;20731;-62
2021/08/10 03:11:54;;;;;;;7.10;5.40;;;14.20;99.90;;;;;;5026747;28;20833;-61
2021/08/10 03:14:25;;;;;;;7.97;5.40;;;14.20;99.90;;;;;;5025009;28;20248;-62
2021/08/10 03:16:55;;;;;;;6.37;4.93;;;14.20;99.90;;;;;;5026984;28;20236;-62
2021/08/10 03:19:28;;;;;;;8.43;5.33;;;14.20;99.90;;;;;;5026066;28;20245;-62
2021/08/10 03:21:59;;;;;;;8.50;5.83;;;14.20;99.90;;;;;;5025070;28;20229;-61
2021/08/10 03:24:28;;;;;;;9.07;5.83;;;14.20;99.90;;;;;;5023968;28;20291;-62
2021/08/10 03:26:59;;;;;;;7.93;5.70;;;14.20;99.90;;;;;;5024598;28;20259;-61
2021/08/10 03:29:28;;;;;;;7.93;5.20;;;14.20;99.90;;;;;;5024607;28;20236;-62
2021/08/10 03:31:57;;;;;;;7.33;5.77;;;14.20;99.90;;;;;;5025947;28;20653;-62
2021/08/10 03:34:27;;;;;;;7.53;5.60;;;14.10;99.90;;;;;;5025340;28;20316;-62
2021/08/10 03:36:56;;;;;;;10.53;5.60;;;14.20;99.90;;;;;;5024001;28;20295;-62
2021/08/10 03:39:25;;;;;;;6.10;5.30;;;14.20;99.90;;;;;;5025256;28;20778;-63
2021/08/10 03:41:56;;;;;;;8.87;5.47;;;14.10;99.90;;;;;;5023995;28;20599;-61
2021/08/10 03:44:24;;;;;;;6.77;5.23;;;14.20;99.90;;;;;;5027682;28;20331;-63
2021/08/10 03:46:55;;;;;;;9.30;5.70;;;14.10;99.90;;;;;;5027945;28;20264;-62
2021/08/10 03:49:26;;;;;;;6.80;5.70;;;14.20;99.90;;;;;;5027916;28;20262;-62
2021/08/10 03:51:55;;;;;;;8.40;5.50;;;14.20;99.90;;;;;;5028047;28;20638;-62
2021/08/10 03:54:23;;;;;;;6.20;5.60;;;14.20;99.90;;;;;;5028759;28;20581;-62
2021/08/10 03:56:52;;;;;;;6.63;5.10;;;14.20;99.90;;;;;;5028997;28;20274;-62
2021/08/10 03:59:22;;;;;;;7.33;5.27;;;14.20;99.90;;;;;;5022389;28;20315;-62
2021/08/10 04:01:54;;;;;;;6.90;5.13;;;14.20;99.90;;;;;;5027763;28;20237;-62
2021/08/10 04:04:26;;;;;;;8.90;5.97;;;14.20;99.90;;;;;;5027930;28;20591;-61
2021/08/10 04:07:05;;;;;;;9.10;5.93;;;14.20;99.90;;;;;;5027255;28;20236;-62
2021/08/10 04:09:35;;;;;;;6.90;5.27;;;14.20;99.90;;;;;;5027844;28;20240;-62
2021/08/10 04:12:05;;;;;;;9.43;5.70;;;14.20;99.90;;;;;;5029605;28;20244;-62
2021/08/10 04:14:37;;;;;;;10.17;5.43;;;14.20;99.90;;;;;;5028523;28;20244;-61
2021/08/10 04:17:08;;;;;;;7.77;5.27;;;14.20;99.90;;;;;;5028475;28;20242;-62
2021/08/10 04:19:49;;;;;;;6.73;5.00;;;14.20;99.90;;;;;;5030598;28;20236;-62
2021/08/10 04:22:20;;;;;;;8.40;5.27;;;14.20;99.90;;;;;;5026988;28;20240;-62
2021/08/10 04:24:49;;;;;;;6.53;5.30;;;14.20;99.90;;;;;;5028794;28;20298;-62
2021/08/10 04:27:18;;;;;;;6.07;5.27;;;14.20;99.90;;;;;;5021706;28;20228;-62
2021/08/10 04:29:51;;;;;;;10.93;5.77;;;14.20;99.90;;;;;;5028775;28;20232;-63
2021/08/10 04:32:23;;;;;;;6.33;5.07;;;14.30;99.90;;;;;;5028628;28;20251;-63
2021/08/10 04:34:53;;;;;;;9.23;5.67;;;14.30;99.90;;;;;;5028029;28;20286;-62
2021/08/10 04:37:23;;;;;;;6.80;5.13;;;14.30;99.90;;;;;;5027823;28;20228;-61
2021/08/10 04:39:54;;;;;;;7.57;5.63;;;14.30;99.90;;;;;;5028393;28;20232;-62
2021/08/10 04:42:42;;;;;;;7.63;5.43;;;14.30;99.90;;;;;;5018394;28;20236;-62
2021/08/10 04:45:12;;;;;;;8.07;5.90;;;14.30;99.90;;;;;;5028109;28;20237;-62
2021/08/10 04:47:40;;;;;;;8.83;5.27;;;14.30;99.90;;;;;;5006841;28;20229;-61
2021/08/10 04:50:10;;;;;;;6.40;5.57;;;14.30;99.90;;;;;;5028339;28;20229;-62
2021/08/10 04:52:39;;;;;;;6.97;5.50;;;14.40;99.90;;;;;;5027965;28;20237;-61
2021/08/10 04:55:08;;;;;;;8.63;5.43;;;14.40;99.90;;;;;;5027963;28;20230;-61
2021/08/10 04:57:37;;;;;;;5.20;4.70;;;14.40;99.90;;;;;;5028037;28;20240;-62
2021/08/10 05:00:06;;;;;;;8.37;6.27;;;14.40;99.90;;;;;;5028825;28;20247;-62
2021/08/10 05:02:38;;;;;;;7.20;5.33;;;14.40;99.90;;;;;;5027983;28;20236;-62
2021/08/10 05:05:09;;;;;;;7.73;5.13;;;14.30;99.90;;;;;;5027864;28;20286;-62
2021/08/10 05:07:38;;;;;;;9.40;5.67;;;14.40;99.90;;;;;;5028074;28;20232;-62
2021/08/10 05:10:10;;;;;;;9.60;5.40;;;14.40;99.90;;;;;;5012207;28;20283;-62
2021/08/10 05:12:38;;;;;;;6.27;5.20;;;14.40;99.90;;;;;;5007973;28;20241;-62
2021/08/10 05:15:11;;;;;;;7.10;5.10;;;14.40;99.90;;;;;;5028070;28;20233;-61
2021/08/10 05:17:39;;;;;;;9.43;5.97;;;14.40;99.90;;;;;;5039801;28;20289;-62
2021/08/10 05:20:12;;;;;;;6.37;5.10;;;14.40;99.90;;;;;;5050076;28;20260;-62
2021/08/10 05:22:42;;;;;;;6.40;5.03;;;14.50;99.90;;;;;;5031528;28;20655;-62
2021/08/10 05:25:10;;;;;;;8.90;5.40;;;14.60;99.90;;;;;;5037539;28;20242;-62
2021/08/10 05:27:39;;;;;;;8.77;5.50;;;14.50;99.90;;;;;;5035127;28;20692;-63
2021/08/10 05:30:09;;;;;;;7.57;4.93;;;14.50;99.90;;;;;;5035474;28;20229;-61
2021/08/10 05:32:38;;;;;;;8.83;5.23;;;14.50;99.90;;;;;;5033613;28;20274;-62
2021/08/10 05:35:27;;;;;;;7.67;5.33;;;14.50;99.90;;;;;;5034469;28;20235;-63
2021/08/10 05:37:55;;;;;;;10.80;5.97;;;14.50;99.90;;;;;;5034399;28;20666;-62
2021/08/10 05:40:23;;;;;;;9.17;5.63;;;14.60;99.90;;;;;;5032799;28;20232;-62
2021/08/10 05:42:52;;;;;;;8.13;5.53;;;14.60;99.90;;;;;;5034680;28;20587;-62
2021/08/10 05:45:21;;;;;;;10.37;5.57;;;14.70;99.90;;;;;;5035396;28;20239;-62
2021/08/10 05:47:50;;;;;;;8.10;5.40;;;14.70;99.90;;;;;;5034400;28;20492;-62
2021/08/10 05:50:20;;;;;;;7.70;5.40;;;14.80;99.90;;;;;;5034883;28;20228;-62
2021/08/10 05:52:49;;;;;;;9.50;5.90;;;14.80;99.90;;;;;;5032097;28;20709;-62
2021/08/10 05:55:18;;;;;;;7.93;5.30;;;14.80;99.90;;;;;;5031622;28;20618;-62
2021/08/10 05:57:50;;;;;;;7.37;5.57;;;14.80;99.90;;;;;;5032255;28;20228;-62
2021/08/10 06:00:19;;;;;;;7.53;5.60;;;14.80;99.90;;;;;;5034624;28;20319;-62
2021/08/10 06:02:47;;;;;;;7.13;5.50;;;14.80;99.90;;;;;;5032538;28;20228;-62
2021/08/10 06:05:21;;;;;;;8.33;5.83;;;14.90;99.90;;;;;;5032415;28;20235;-62
2021/08/10 06:07:51;;;;;;;6.90;5.60;;;14.90;99.90;;;;;;5035638;28;20612;-61
2021/08/10 06:10:19;;;;;;;9.03;5.40;;;15.00;99.90;;;;;;5034205;28;20271;-62
2021/08/10 06:12:48;;;;;;;8.87;5.33;;;15.00;99.90;;;;;;5029815;28;20240;-62
2021/08/10 06:15:17;;;;;;;7.30;5.43;;;15.00;99.90;;;;;;5035141;28;20236;-62
2021/08/10 06:17:45;;;;;;;7.37;5.33;;;15.00;99.90;;;;;;5034885;28;20264;-62
2021/08/10 06:20:14;;;;;;;8.70;5.40;;;15.10;99.90;;;;;;5032875;28;20256;-62
2021/08/10 06:22:43;;;;;;;11.00;6.13;;;15.20;99.90;;;;;;5049464;28;20355;-62
2021/08/10 06:25:13;;;;;;;11.30;6.13;;;15.20;99.90;;;;;;5024632;28;20243;-62
2021/08/10 06:27:45;;;;;;;8.17;5.67;;;15.20;99.90;;;;;;5024313;28;20628;-62
2021/08/10 06:30:19;;;;;;;8.40;5.47;;;15.20;99.90;;;;;;5022834;28;20264;-62
2021/08/10 06:32:47;;;;;;;8.43;5.30;;;15.30;99.90;;;;;;5032811;28;20228;-62
2021/08/10 06:35:21;;;;;;;8.40;6.33;;;15.30;99.90;;;;;;5032089;28;20232;-62
2021/08/10 06:37:52;;;;;;;6.47;5.37;;;15.30;99.90;;;;;;5028520;28;20232;-62
2021/08/10 06:40:22;;;;;;;11.73;6.33;;;15.40;99.90;;;;;;5032488;28;20256;-62
2021/08/10 06:42:52;;;;;;;9.50;5.80;;;15.40;99.90;;;;;;5030422;28;20294;-61
2021/08/10 06:45:23;;;;;;;6.03;5.43;;;15.50;99.90;;;;;;5033820;28;20334;-62
2021/08/10 06:47:52;;;;;;;8.40;5.50;;;15.50;99.90;;;;;;5031976;28;20235;-63
2021/08/10 06:50:32;;;;;;;7.53;5.70;;;15.60;99.90;;;;;;5029080;28;20227;-62
2021/08/10 06:53:01;;;;;;;6.97;5.40;;;15.60;99.90;;;;;;5029743;28;20235;-62
2021/08/10 06:55:34;;;;;;;8.07;6.37;;;15.70;99.90;;;;;;5029664;28;20235;-62
2021/08/10 06:58:07;;;;;;;8.53;6.10;;;15.60;99.90;;;;;;5032361;28;20234;-62
2021/08/10 07:00:36;;;;;;;8.47;6.13;;;15.70;99.90;;;;;;5033088;28;20289;-62
2021/08/10 07:03:07;;;;;;;10.50;5.80;;;15.70;99.90;;;;;;5031682;28;20647;-61
2021/08/10 07:05:36;;;;;;;7.60;6.37;;;15.70;99.90;;;;;;5032441;28;20651;-63
2021/08/10 07:08:07;;;;;;;9.20;6.27;;;15.80;99.90;;;;;;5030972;28;20239;-62
2021/08/10 07:10:41;;;;;;;6.60;5.80;;;15.90;99.90;;;;;;5032418;28;20251;-63
2021/08/10 07:13:09;;;;;;;7.50;5.77;;;15.90;99.90;;;;;;5029794;28;20259;-62
2021/08/10 07:15:38;;;;;;;7.90;6.03;;;15.90;99.90;;;;;;5032869;28;20242;-62
2021/08/10 07:18:11;;;;;;;8.00;6.20;;;15.90;99.90;;;;;;5036610;28;20301;-62
2021/08/10 07:20:41;;;;;;;7.57;6.00;;;16.00;99.90;;;;;;5037536;28;20787;-62
2021/08/10 07:23:10;;;;;;;8.27;6.00;;;16.00;99.90;;;;;;5033299;28;20231;-62
2021/08/10 07:25:44;;;;;;;7.40;6.23;;;16.00;99.90;;;;;;5037787;28;20319;-62
2021/08/10 07:28:13;;;;;;;7.83;5.70;;;16.10;99.90;;;;;;5034007;28;20233;-62
2021/08/10 07:30:41;;;;;;;7.07;5.50;;;16.40;99.90;;;;;;5029983;28;20592;-62
2021/08/10 07:33:12;;;;;;;8.07;6.03;;;16.80;99.90;;;;;;5031864;28;20319;-62
2021/08/10 07:35:40;;;;;;;7.53;5.80;;;17.10;99.90;;;;;;5035166;28;20245;-62
2021/08/10 07:38:08;;;;;;;7.93;5.67;;;17.40;99.90;;;;;;5036636;28;20244;-62
2021/08/10 07:40:37;;;;;;;8.57;6.27;;;17.50;99.90;;;;;;5035411;28;20270;-62
2021/08/10 07:43:08;;;;;;;9.37;6.60;;;17.50;99.90;;;;;;5033206;28;20239;-62
2021/08/10 07:45:39;;;;;;;14.57;6.60;;;17.40;99.90;;;;;;5035348;28;20233;-63
2021/08/10 07:48:15;;;;;;;12.07;7.00;;;17.40;99.90;;;;;;5016109;28;20237;-65
2021/08/10 07:50:46;;;;;;;8.57;6.17;;;17.40;99.90;;;;;;5028703;28;20662;-66
2021/08/10 07:53:14;;;;;;;8.13;6.40;;;17.60;99.90;;;;;;5029348;28;20221;-65
2021/08/10 07:55:42;;;;;;;11.40;6.50;;;17.70;99.90;;;;;;5033749;28;20304;-65
2021/08/10 07:58:12;;;;;;;8.63;6.60;;;17.80;99.90;;;;;;5027477;28;20596;-65
2021/08/10 08:00:40;;;;;;;9.17;5.70;;;18.10;99.90;;;;;;5027349;28;20228;-65
2021/08/10 08:03:10;;;;;;;9.00;5.63;;;18.40;99.90;;;;;;5027077;28;20333;-65
2021/08/10 08:05:39;;;;;;;6.37;5.27;;;18.90;99.90;;;;;;5027859;28;20517;-66
2021/08/10 08:08:07;;;;;;;9.40;5.37;;;19.50;99.90;;;;;;5028489;28;20517;-65
2021/08/10 08:10:35;;;;;;;7.50;5.07;;;19.70;99.90;;;;;;5027062;28;20229;-66
2021/08/10 08:13:24;;;;;;;8.80;5.50;;;19.70;99.90;;;;;;5028106;28;20238;-65
2021/08/10 08:15:54;;;;;;;7.87;5.43;;;19.60;99.90;;;;;;5028049;28;20755;-66
2021/08/10 08:18:25;;;;;;;6.07;5.47;;;19.50;99.90;;;;;;5039432;28;20670;-66
2021/08/10 08:20:54;;;;;;;6.97;5.53;;;19.20;99.90;;;;;;5025175;28;20235;-66
2021/08/10 08:23:28;;;;;;;8.90;5.97;;;19.00;99.90;;;;;;5014315;28;20248;-67
2021/08/10 08:25:59;;;;;;;9.03;6.00;;;18.90;99.90;;;;;;5005207;28;20592;-66
2021/08/10 08:28:29;;;;;;;8.47;6.53;;;18.70;99.90;;;;;;5021350;28;20239;-67
2021/08/10 08:30:57;;;;;;;8.47;5.80;;;18.70;99.90;;;;;;5003915;28;20278;-66
2021/08/10 08:33:27;;;;;;;7.30;5.90;;;19.10;99.90;;;;;;5008321;28;20290;-66
2021/08/10 08:35:55;;;;;;;14.07;6.53;;;19.30;99.90;;;;;;5025801;28;20663;-66
2021/08/10 08:38:23;;;;;;;9.53;5.83;;;19.50;99.90;;;;;;5043990;28;20587;-66
2021/08/10 08:40:53;;;;;;;11.07;6.23;;;19.90;99.90;;;;;;5034625;28;20322;-66
2021/08/10 08:43:22;;;;;;;12.93;5.70;;;20.30;99.90;;;;;;5035260;28;20243;-66
2021/08/10 08:45:55;;;;;;;10.17;5.80;;;20.40;99.90;;;;;;5030653;28;20234;-66
2021/08/10 08:48:27;;;;;;;9.50;5.50;;;20.00;99.90;;;;;;5036091;28;20428;-66
2021/08/10 08:51:00;;;;;;;7.60;5.57;;;19.80;99.90;;;;;;5036290;28;20231;-66
2021/08/10 08:53:29;;;;;;;8.93;5.67;;;19.90;99.90;;;;;;5028608;28;20255;-66
2021/08/10 08:55:58;;;;;;;7.73;6.03;;;20.10;99.90;;;;;;5033890;28;20285;-66
2021/08/10 08:58:26;;;;;;;7.77;5.80;;;19.90;99.90;;;;;;5034308;28;20246;-66
2021/08/10 09:00:56;;;;;;;9.37;6.13;;;19.90;99.90;;;;;;5031786;28;20231;-67
2021/08/10 09:03:25;;;;;;;8.03;6.60;;;20.40;99.90;;;;;;5030728;28;20642;-66
2021/08/10 09:05:53;;;;;;;6.77;5.33;;;20.70;99.90;;;;;;5026640;28;20741;-66
2021/08/10 09:08:29;;;;;;;7.73;5.00;;;21.30;99.90;;;;;;5033136;28;20323;-66
2021/08/10 09:11:01;;;;;;;11.77;5.07;;;21.80;99.90;;;;;;5029340;28;20236;-66
2021/08/10 09:13:32;;;;;;;7.73;5.87;;;21.90;99.90;;;;;;5031089;28;20244;-67
2021/08/10 09:16:03;;;;;;;6.10;5.30;;;21.90;99.90;;;;;;5032008;28;20228;-66
2021/08/10 09:18:32;;;;;;;5.30;4.80;;;22.20;99.90;;;;;;5049861;28;20238;-66
2021/08/10 09:21:09;;;;;;;5.60;4.97;;;22.50;99.90;;;;;;5028056;28;20483;-67
2021/08/10 09:23:45;;;;;;;5.70;4.80;;;22.50;99.90;;;;;;5028313;28;20243;-66
2021/08/10 09:26:17;;;;;;;8.27;5.43;;;22.40;99.90;;;;;;5027715;28;20326;-67
2021/08/10 09:28:46;;;;;;;7.00;5.77;;;22.10;99.90;;;;;;5030306;28;20862;-67
2021/08/10 09:31:36;;;;;;;8.17;5.57;;;21.90;99.90;;;;;;5031693;28;20596;-67
2021/08/10 09:34:07;;;;;;;6.20;5.60;;;21.90;99.90;;;;;;5031505;28;20238;-67
2021/08/10 09:36:38;;;;;;;6.07;4.90;;;22.00;99.90;;;;;;5031980;28;20251;-67
2021/08/10 09:39:06;;;;;;;6.10;5.20;;;22.40;99.90;;;;;;5028184;28;20287;-67
2021/08/10 09:41:35;;;;;;;9.23;5.20;;;22.50;99.90;;;;;;5030374;28;20697;-66
2021/08/10 09:44:12;;;;;;;5.33;4.43;;;22.70;99.90;;;;;;5032963;28;20322;-66
2021/08/10 09:46:48;;;;;;;7.07;5.17;;;22.90;99.90;;;;;;5035412;28;20235;-66
2021/08/10 09:49:18;;;;;;;8.87;5.33;;;23.10;99.90;;;;;;5034871;28;20290;-65
2021/08/10 09:51:47;;;;;;;8.07;5.27;;;23.40;99.90;;;;;;5036744;28;20233;-67
2021/08/10 09:54:17;;;;;;;7.07;5.10;;;23.00;99.90;;;;;;5035401;28;20596;-67
2021/08/10 09:56:49;;;;;;;8.97;5.77;;;22.40;99.90;;;;;;5037186;28;20235;-66
2021/08/10 09:59:19;;;;;;;6.67;6.00;;;21.70;99.90;;;;;;5034750;28;20232;-66
2021/08/10 10:01:51;;;;;;;7.63;6.80;;;21.20;99.90;;;;;;5033352;28;20273;-67
2021/08/10 10:04:23;;;;;;;6.63;6.03;;;21.00;99.90;;;;;;5030910;28;20240;-67
2021/08/10 10:07:11;;;;;;;8.17;5.87;;;21.20;99.90;;;;;;5032187;28;20236;-66
2021/08/10 10:09:52;;;;;;;9.40;5.90;;;21.90;99.90;;;;;;5032889;28;20235;-66
2021/08/10 10:12:23;;;;;;;7.57;5.83;;;22.20;99.90;;;;;;5028656;28;20236;-66
2021/08/10 10:14:58;;;;;;;6.63;5.33;;;22.60;99.90;;;;;;5027718;28;20770;-66
2021/08/10 10:17:32;;;;;;;7.50;5.27;;;22.90;99.90;;;;;;5032063;28;20235;-66
2021/08/10 10:20:01;;;;;;;7.07;5.50;;;22.80;99.90;;;;;;5034082;28;20235;-66
2021/08/10 10:22:32;;;;;;;6.00;5.30;;;22.30;99.90;;;;;;5033513;28;20231;-66
2021/08/10 10:25:02;;;;;;;7.73;6.23;;;21.70;99.90;;;;;;5034205;28;20349;-66
2021/08/10 10:27:34;;;;;;;9.37;7.10;;;21.10;99.90;;;;;;5034378;28;20725;-66
2021/08/10 10:30:02;;;;;;;7.40;5.97;;;20.60;99.90;;;;;;5035085;28;20590;-66
2021/08/10 10:32:32;;;;;;;7.60;6.67;;;20.30;99.90;;;;;;5036125;28;20245;-67
2021/08/10 10:35:00;;;;;;;12.03;7.23;;;20.00;99.90;;;;;;5033630;28;20239;-66
2021/08/10 10:37:30;;;;;;;6.97;6.20;;;20.00;99.90;;;;;;5034732;28;20599;-67
2021/08/10 10:40:00;;;;;;;7.90;6.20;;;20.00;99.90;;;;;;5032706;28;20255;-67
2021/08/10 10:42:29;;;;;;;8.63;6.57;;;20.00;99.90;;;;;;5033660;28;20227;-67
2021/08/10 10:44:57;;;;;;;6.77;6.07;;;20.00;99.90;;;;;;5035084;28;20235;-66
2021/08/10 10:47:38;;;;;;;8.83;6.43;;;19.90;99.90;;;;;;5031008;28;20228;-67
2021/08/10 10:50:13;;;;;;;8.27;5.87;;;19.80;99.90;;;;;;5033689;28;20270;-66
2021/08/10 10:53:02;;;;;;;8.90;6.07;;;19.60;99.90;;;;;;5026445;28;20238;-65
2021/08/10 10:55:41;;;;;;;7.20;5.93;;;19.40;99.90;;;;;;5026400;28;20236;-66
2021/08/10 10:58:37;;;;;;;11.50;6.97;;;19.30;99.90;;;;;;5026836;28;20256;-66
2021/08/10 11:01:19;;;;;;;10.23;7.70;;;19.10;99.90;;;;;;4995140;28;20758;-66
2021/08/10 11:04:12;;;;;;;10.13;8.77;;;19.00;99.90;;;;;;5021384;28;20262;-66
2021/08/10 11:06:46;;;;;;;10.83;8.77;;;19.00;99.90;;;;;;5028506;28;20239;-66
2021/08/10 11:09:57;;;;;;;10.23;8.70;;;18.80;99.90;;;;;;5031676;28;20330;-67
2021/08/10 11:12:42;;;;;;;9.63;7.40;;;18.70;99.90;;;;;;5024442;28;20239;-66
2021/08/10 11:15:17;;;;;;;8.13;7.40;;;18.70;99.90;;;;;;5017430;28;20246;-66
2021/08/10 11:18:21;;;;;;;7.30;6.60;;;18.60;99.90;;;;;;5005008;28;20316;-66
2021/08/10 11:20:53;;;;;;;6.30;5.70;;;18.50;99.90;;;;;;5003209;28;20252;-66
2021/08/10 11:23:39;;;;;;;6.63;5.27;;;18.50;99.90;;;;;;5003579;28;20267;-66
2021/08/10 11:26:42;;;;;;;6.93;5.37;;;18.60;99.90;;;;;;5003433;28;20274;-66
2021/08/10 11:29:34;;;;;;;5.63;5.03;;;18.80;99.90;;;;;;5003825;28;20567;-66
2021/08/10 11:32:02;;;;;;;7.17;4.23;;;19.10;99.90;;;;;;5003592;28;20251;-66
2021/08/10 11:34:37;;;;;;;4.97;4.27;;;19.30;99.90;;;;;;5003740;28;20236;-66
2021/08/10 11:37:26;;;;;;;6.00;4.47;;;19.20;99.90;;;;;;4999689;28;20246;-66
2021/08/10 11:40:12;;;;;;;5.07;4.20;;;18.90;99.90;;;;;;5003735;28;20587;-66
2021/08/10 11:42:42;;;;;;;5.10;4.30;;;18.80;99.90;;;;;;5002382;28;20263;-66
2021/08/10 11:45:11;;;;;;;4.30;3.77;;;18.70;99.90;;;;;;5002013;28;20247;-65
2021/08/10 11:47:39;;;;;;;4.67;4.10;;;18.70;99.90;;;;;;5001429;28;20292;-66
2021/08/10 11:50:07;;;;;;;4.60;4.20;;;18.80;99.90;;;;;;5004213;28;20617;-65
2021/08/10 11:52:46;;;;;;;6.43;4.20;;;18.90;99.90;;;;;;5002924;28;20779;-66
2021/08/10 11:55:15;;;;;;;4.80;4.33;;;19.00;99.90;;;;;;5002944;28;20323;-66
2021/08/10 11:57:58;;;;;;;5.27;4.40;;;19.10;99.90;;;;;;5003067;28;20239;-66
2021/08/10 12:00:28;;;;;;;5.10;4.63;;;19.20;99.90;;;;;;5001799;28;20307;-66
2021/08/10 12:02:57;;;;;;;6.30;5.33;;;19.80;99.90;;;;;;5002604;28;20238;-66
2021/08/10 12:05:27;;;;;;;6.17;5.13;;;20.30;99.90;;;;;;5006485;28;20732;-66
2021/08/10 12:07:58;;;;;;;5.40;4.27;;;20.80;99.90;;;;;;5006677;28;20243;-66
2021/08/10 12:10:32;;;;;;;5.30;4.80;;;21.20;99.90;;;;;;5007248;28;20329;-66
2021/08/10 12:13:02;;;;;;;6.13;5.47;;;21.50;99.90;;;;;;5006914;28;20696;-66
2021/08/10 12:15:43;;;;;;;6.30;5.13;;;21.60;99.90;;;;;;5006461;28;20239;-66
2021/08/10 12:18:13;;;;;;;6.13;5.07;;;21.90;99.90;;;;;;5035895;28;20296;-67
2021/08/10 12:20:42;;;;;;;5.50;5.00;;;22.00;99.90;;;;;;5032806;28;20309;-67
2021/08/10 12:23:12;;;;;;;6.23;4.87;;;22.20;99.90;;;;;;5032997;28;20274;-67
2021/08/10 12:25:41;;;;;;;5.80;4.70;;;22.30;99.90;;;;;;5036195;28;20667;-66
2021/08/10 12:28:10;;;;;;;6.80;4.33;;;22.40;99.90;;;;;;5037590;28;20235;-67
2021/08/10 12:30:42;;;;;;;6.60;5.23;;;22.50;99.90;;;;;;5033514;28;20319;-67
2021/08/10 12:33:20;;;;;;;5.97;5.07;;;22.50;99.90;;;;;;5034011;28;20796;-66
2021/08/10 12:35:59;;;;;;;4.87;4.37;;;22.40;99.90;;;;;;5036693;28;20369;-65
2021/08/10 12:38:29;;;;;;;6.23;5.00;;;22.50;99.90;;;;;;5034106;28;20326;-66
2021/08/10 12:40:58;;;;;;;5.90;4.23;;;22.60;99.90;;;;;;5033036;28;20502;-65
2021/08/10 12:43:27;;;;;;;6.23;4.43;;;22.80;99.90;;;;;;5028305;28;20267;-67
2021/08/10 12:45:56;;;;;;;5.03;4.13;;;22.90;99.90;;;;;;5023922;28;20783;-67
2021/08/10 12:48:30;;;;;;;6.40;4.77;;;22.90;99.90;;;;;;5024087;28;20750;-66
2021/08/10 12:51:01;;;;;;;5.47;4.17;;;23.00;99.90;;;;;;5026449;28;20275;-66
2021/08/10 12:53:33;;;;;;;4.30;3.90;;;23.00;99.90;;;;;;5025826;28;20263;-66
2021/08/10 12:56:03;;;;;;;5.57;4.20;;;22.90;99.90;;;;;;5018134;28;20241;-67
2021/08/10 12:58:32;;;;;;;5.63;4.23;;;22.70;99.90;;;;;;5007029;28;20243;-66
2021/08/10 13:01:04;;;;;;;4.20;3.80;;;22.60;99.90;;;;;;5008011;28;20261;-66
2021/08/10 13:03:33;;;;;;;4.67;3.80;;;22.60;99.90;;;;;;5008250;28;20333;-66
2021/08/10 13:06:02;;;;;;;4.37;3.97;;;22.80;99.90;;;;;;5008110;28;20237;-67
2021/08/10 13:08:31;;;;;;;4.13;3.10;;;22.90;99.90;;;;;;5006254;28;20331;-67
2021/08/10 13:11:01;;;;;;;2.87;2.63;;;23.00;99.90;;;;;;5008211;28;20233;-67